Time;durP1;ratioP1;P1;durP2;ratioP2;P2;SDS_P1;SDS_P2;PMS_P1;PMS_P2;Temp;Humidity;BMP_temperature;BMP_pressure;BME280_temperature;BME280_humidity;BME280_pressure;Samples;Min_cycle;Max_cycle;Signal;HPM_P1;HPM_P2
2022/01/13 00:00:14;;;;;;;108.82;28.05;;;5.60;99.90;;;;;;5100481;27;20086;-61
2022/01/13 00:02:41;;;;;;;123.38;28.65;;;5.60;99.90;;;;;;5097485;27;20089;-60
2022/01/13 00:05:07;;;;;;;115.20;27.95;;;5.60;99.90;;;;;;5120048;27;20497;-60
2022/01/13 00:07:35;;;;;;;75.15;24.17;;;5.60;99.90;;;;;;5122528;27;20511;-60
2022/01/13 00:10:02;;;;;;;100.00;24.95;;;5.60;99.90;;;;;;5116546;27;20695;-61
2022/01/13 00:12:33;;;;;;;96.70;24.77;;;5.60;99.90;;;;;;5091560;27;20523;-61
2022/01/13 00:15:46;;;;;;;81.03;22.40;;;5.60;99.90;;;;;;5121662;27;20050;-61
2022/01/13 00:18:01;;;;;;;115.88;22.85;;;5.60;99.90;;;;;;5115590;27;20055;-60
2022/01/13 00:20:35;;;;;;;90.53;22.27;;;5.50;99.90;;;;;;5120603;27;20478;-60
2022/01/13 00:25:47;;;;;;;143.32;25.00;;;5.50;99.90;;;;;;5109862;27;20066;-61
2022/01/13 00:28:20;;;;;;;118.45;24.35;;;5.50;99.90;;;;;;5104670;27;20431;-59
2022/01/13 00:30:50;;;;;;;101.50;24.35;;;5.50;99.90;;;;;;5108823;27;20047;-61
2022/01/13 00:33:18;;;;;;;99.47;24.50;;;5.50;99.90;;;;;;5102917;27;20517;-60
2022/01/13 00:35:43;;;;;;;113.07;24.38;;;5.50;99.90;;;;;;5122581;27;20039;-60
2022/01/13 00:38:09;;;;;;;95.63;23.35;;;5.40;99.90;;;;;;5107432;27;20046;-59
2022/01/13 00:40:36;;;;;;;130.20;27.10;;;5.40;99.90;;;;;;5107579;27;20603;-60
2022/01/13 00:43:02;;;;;;;83.18;23.38;;;5.40;99.90;;;;;;5118167;27;20112;-60
2022/01/13 00:45:27;;;;;;;82.70;22.15;;;5.40;99.90;;;;;;5126991;27;20435;-61
2022/01/13 00:47:53;;;;;;;89.18;21.58;;;5.40;99.90;;;;;;5099932;27;20127;-60
2022/01/13 00:50:19;;;;;;;85.20;20.50;;;5.30;99.90;;;;;;5100406;27;20612;-61
2022/01/13 00:52:44;;;;;;;74.55;20.95;;;5.30;99.90;;;;;;5121231;27;20039;-61
2022/01/13 00:55:15;;;;;;;85.97;20.10;;;5.30;99.90;;;;;;5105267;27;20039;-60
2022/01/13 00:57:41;;;;;;;108.80;20.95;;;5.20;99.90;;;;;;5126395;27;20509;-60
2022/01/13 01:00:07;;;;;;;95.45;21.33;;;5.20;99.90;;;;;;5101581;27;20127;-61
2022/01/13 01:02:33;;;;;;;101.10;21.35;;;5.20;99.90;;;;;;5120097;27;20437;-59
2022/01/13 01:04:59;;;;;;;90.32;22.35;;;5.20;99.90;;;;;;5120628;27;20532;-61
2022/01/13 01:07:24;;;;;;;103.70;21.75;;;5.20;99.90;;;;;;5105911;27;20053;-59
2022/01/13 01:09:51;;;;;;;105.28;23.13;;;5.20;99.90;;;;;;5103547;27;20086;-61
2022/01/13 01:12:18;;;;;;;103.70;21.52;;;5.20;99.90;;;;;;5070049;27;20046;-61
2022/01/13 01:14:54;;;;;;;93.35;21.30;;;5.20;99.90;;;;;;5120327;27;20043;-61
2022/01/13 01:17:20;;;;;;;121.00;23.48;;;5.20;99.90;;;;;;5090341;27;20042;-60
2022/01/13 01:19:49;;;;;;;110.13;24.35;;;5.10;99.90;;;;;;5119661;27;20042;-61
2022/01/13 01:25:31;;;;;;;80.65;22.58;;;5.10;99.90;;;;;;5119237;27;20043;-61
2022/01/13 01:27:51;;;;;;;73.72;21.40;;;5.10;99.90;;;;;;5117247;27;20387;-61
2022/01/13 01:32:49;;;;;;;92.55;22.50;;;5.10;99.90;;;;;;5116833;27;20050;-61
2022/01/13 01:35:17;;;;;;;116.78;25.45;;;5.10;99.90;;;;;;5120828;27;20049;-58
2022/01/13 01:37:44;;;;;;;122.35;23.90;;;5.10;99.90;;;;;;5101591;27;20050;-60
2022/01/13 01:40:11;;;;;;;105.45;22.80;;;5.10;99.90;;;;;;5101989;27;20054;-61
2022/01/13 01:42:38;;;;;;;99.85;24.40;;;5.10;99.90;;;;;;5101469;27;20062;-61
2022/01/13 01:45:07;;;;;;;125.07;25.33;;;5.10;99.90;;;;;;5117537;27;20051;-60
2022/01/13 01:47:33;;;;;;;102.45;25.00;;;5.10;99.90;;;;;;5119520;27;20051;-61
2022/01/13 01:50:10;;;;;;;110.85;26.13;;;5.20;99.90;;;;;;5117939;27;20047;-61
2022/01/13 01:52:37;;;;;;;121.47;26.13;;;5.20;99.90;;;;;;5103912;27;20079;-59
2022/01/13 01:55:04;;;;;;;103.72;27.02;;;5.20;99.90;;;;;;5102514;27;20498;-61
2022/01/13 01:57:30;;;;;;;109.50;25.08;;;5.20;99.90;;;;;;5100074;27;20051;-60
2022/01/13 01:59:56;;;;;;;110.10;26.85;;;5.20;99.90;;;;;;5119973;27;20118;-61
2022/01/13 02:02:27;;;;;;;99.68;25.55;;;5.20;99.90;;;;;;5097751;27;20055;-61
2022/01/13 02:04:53;;;;;;;93.50;25.52;;;5.20;99.90;;;;;;5119545;27;20049;-61
2022/01/13 02:07:18;;;;;;;118.57;27.48;;;5.20;99.90;;;;;;5103474;27;20453;-59
2022/01/13 02:09:50;;;;;;;94.68;25.73;;;5.20;99.90;;;;;;5087655;27;20083;-61
2022/01/13 02:12:29;;;;;;;107.07;26.83;;;5.20;99.90;;;;;;5116560;27;20053;-61
2022/01/13 02:17:41;;;;;;;107.75;27.70;;;5.20;99.90;;;;;;5119813;27;20050;-60
2022/01/13 02:20:10;;;;;;;102.85;25.73;;;5.20;99.90;;;;;;5104549;27;20090;-61
2022/01/13 02:22:36;;;;;;;120.03;28.20;;;5.20;99.90;;;;;;5120577;27;20049;-61
2022/01/13 02:25:04;;;;;;;90.85;26.70;;;5.20;99.90;;;;;;5086836;27;20050;-60
2022/01/13 02:27:30;;;;;;;130.70;27.98;;;5.20;99.90;;;;;;5075059;27;20042;-61
2022/01/13 02:29:56;;;;;;;98.18;25.95;;;5.20;99.90;;;;;;5099785;27;20051;-61
2022/01/13 02:32:21;;;;;;;92.80;25.70;;;5.20;99.90;;;;;;5116068;27;20410;-61
2022/01/13 02:34:48;;;;;;;88.18;26.25;;;5.20;99.90;;;;;;5084319;27;20125;-60
2022/01/13 02:37:14;;;;;;;101.95;26.95;;;5.20;99.90;;;;;;5086525;27;20051;-59
2022/01/13 02:39:41;;;;;;;76.03;25.13;;;5.20;99.90;;;;;;5105384;27;20101;-61
2022/01/13 02:42:14;;;;;;;78.53;25.30;;;5.20;99.90;;;;;;5094337;27;20079;-60
2022/01/13 02:44:49;;;;;;;82.93;25.13;;;5.10;99.90;;;;;;5099756;27;20944;-61
2022/01/13 02:47:36;;;;;;;82.00;24.58;;;5.20;99.90;;;;;;5101280;27;20263;-59
2022/01/13 02:50:06;;;;;;;93.43;25.52;;;5.10;99.90;;;;;;5101348;27;20043;-59
2022/01/13 02:52:32;;;;;;;85.40;24.80;;;5.20;99.90;;;;;;5099551;27;20051;-61
2022/01/13 02:54:58;;;;;;;96.93;26.77;;;5.10;99.90;;;;;;5100516;27;20055;-60
2022/01/13 02:57:24;;;;;;;106.00;26.63;;;5.20;99.90;;;;;;5120022;27;20586;-59
2022/01/13 02:59:50;;;;;;;76.55;24.75;;;5.20;99.90;;;;;;5118431;27;20041;-59
2022/01/13 03:02:16;;;;;;;91.82;26.05;;;5.20;99.90;;;;;;5114417;27;20066;-59
2022/01/13 03:04:46;;;;;;;106.68;25.48;;;5.20;99.90;;;;;;5118138;27;20396;-59
2022/01/13 03:07:12;;;;;;;101.82;25.70;;;5.20;99.90;;;;;;5117169;27;20058;-61
2022/01/13 03:09:38;;;;;;;87.88;23.85;;;5.20;99.90;;;;;;5122747;27;20039;-60
2022/01/13 03:12:04;;;;;;;85.30;23.13;;;5.20;99.90;;;;;;5117365;27;20050;-60
2022/01/13 03:14:30;;;;;;;101.03;24.17;;;5.30;99.90;;;;;;5101810;27;20065;-60
2022/01/13 03:16:56;;;;;;;96.38;24.90;;;5.30;99.90;;;;;;5099418;27;20649;-61
2022/01/13 03:19:22;;;;;;;82.90;24.35;;;5.30;99.90;;;;;;5120501;27;20602;-60
2022/01/13 03:21:48;;;;;;;92.18;23.02;;;5.30;99.90;;;;;;5099459;27;20051;-61
2022/01/13 03:24:14;;;;;;;100.15;24.48;;;5.30;99.90;;;;;;5118071;27;20449;-61
2022/01/13 03:26:42;;;;;;;102.40;25.42;;;5.30;99.90;;;;;;5108698;27;20134;-61
2022/01/13 03:31:37;;;;;;;98.25;24.33;;;5.30;99.90;;;;;;5116372;27;20178;-61
2022/01/13 03:34:03;;;;;;;77.75;23.83;;;5.30;99.90;;;;;;5119900;27;20034;-61
2022/01/13 03:36:28;;;;;;;98.15;24.38;;;5.30;99.90;;;;;;5116796;27;20048;-61
2022/01/13 03:38:55;;;;;;;93.55;25.17;;;5.30;99.90;;;;;;5120253;27;20039;-61
2022/01/13 03:41:22;;;;;;;114.10;24.75;;;5.30;99.90;;;;;;5119834;27;20532;-61
2022/01/13 03:43:51;;;;;;;112.20;25.67;;;5.30;99.90;;;;;;5117497;27;20086;-61
2022/01/13 03:46:17;;;;;;;106.13;25.48;;;5.30;99.90;;;;;;5102306;27;20496;-61
2022/01/13 03:48:43;;;;;;;99.50;25.02;;;5.20;99.90;;;;;;5086980;27;20051;-61
2022/01/13 03:51:09;;;;;;;110.28;26.30;;;5.20;99.90;;;;;;5101370;27;20050;-60
2022/01/13 03:53:38;;;;;;;113.93;27.23;;;5.20;99.90;;;;;;5099411;27;22185;-62
2022/01/13 03:56:15;;;;;;;116.07;27.13;;;5.20;99.90;;;;;;5119852;27;20519;-61
2022/01/13 03:58:50;;;;;;;98.88;25.92;;;5.20;99.90;;;;;;5121489;27;20118;-61
2022/01/13 04:01:54;;;;;;;86.68;24.33;;;5.20;99.90;;;;;;5115228;27;20054;-61
2022/01/13 04:04:20;;;;;;;131.23;27.65;;;5.20;99.90;;;;;;5115055;27;20458;-61
2022/01/13 04:06:46;;;;;;;106.20;25.55;;;5.20;99.90;;;;;;5099276;27;20042;-61
2022/01/13 04:09:36;;;;;;;109.70;26.52;;;5.20;99.90;;;;;;5100525;27;20055;-60
2022/01/13 04:12:05;;;;;;;100.38;24.60;;;5.20;99.90;;;;;;5099298;27;20794;-61
2022/01/13 04:14:42;;;;;;;101.43;24.73;;;5.20;99.90;;;;;;5125652;27;20419;-61
2022/01/13 04:17:27;;;;;;;105.18;25.42;;;5.20;99.90;;;;;;5106378;27;20396;-60
2022/01/13 04:19:53;;;;;;;96.18;24.80;;;5.10;99.90;;;;;;5100281;27;20516;-60
2022/01/13 04:22:19;;;;;;;117.55;25.25;;;5.10;99.90;;;;;;5119639;27;20031;-60
2022/01/13 04:24:50;;;;;;;110.60;25.45;;;5.10;99.90;;;;;;5124866;27;20039;-61
2022/01/13 04:27:35;;;;;;;119.32;25.80;;;5.20;99.90;;;;;;5119684;27;20054;-60
2022/01/13 04:32:42;;;;;;;116.32;25.20;;;5.20;99.90;;;;;;5126304;27;20093;-60
2022/01/13 04:35:09;;;;;;;120.60;25.77;;;5.10;99.90;;;;;;5110390;27;20471;-60
2022/01/13 04:37:35;;;;;;;124.53;24.92;;;5.20;99.90;;;;;;5105219;27;20039;-61
2022/01/13 04:40:00;;;;;;;130.95;26.67;;;5.20;99.90;;;;;;5119211;27;20082;-61
2022/01/13 04:42:31;;;;;;;118.82;25.70;;;5.20;99.90;;;;;;5116679;27;20492;-62
2022/01/13 04:44:57;;;;;;;116.13;26.25;;;5.20;99.90;;;;;;5082402;28;20190;-61
2022/01/13 04:47:23;;;;;;;130.27;26.05;;;5.20;99.90;;;;;;5070179;28;20179;-60
2022/01/13 04:49:49;;;;;;;142.88;28.02;;;5.30;99.90;;;;;;5066401;28;20193;-61
2022/01/13 04:52:14;;;;;;;108.35;25.55;;;5.20;99.90;;;;;;5062670;28;20052;-61
2022/01/13 04:54:40;;;;;;;160.57;27.25;;;5.30;99.90;;;;;;5070384;28;20317;-61
2022/01/13 04:57:15;;;;;;;143.43;27.17;;;5.30;99.90;;;;;;5067069;28;20090;-61
2022/01/13 04:59:41;;;;;;;167.20;26.75;;;5.20;99.90;;;;;;5070925;28;20040;-60
2022/01/13 05:02:07;;;;;;;149.18;27.67;;;5.30;99.90;;;;;;5068920;28;20045;-59
2022/01/13 05:04:33;;;;;;;155.50;27.25;;;5.30;99.90;;;;;;5068189;28;20086;-61
2022/01/13 05:06:58;;;;;;;127.45;26.10;;;5.30;99.90;;;;;;5069774;28;20255;-60
2022/01/13 05:09:24;;;;;;;119.60;25.20;;;5.30;99.90;;;;;;5067695;28;20047;-61
2022/01/13 05:11:50;;;;;;;121.88;25.83;;;5.30;99.90;;;;;;5067116;28;20370;-61
2022/01/13 05:14:16;;;;;;;129.23;26.67;;;5.30;99.90;;;;;;5069199;28;20071;-59
2022/01/13 05:16:56;;;;;;;149.60;26.23;;;5.30;99.90;;;;;;5070764;28;20127;-59
2022/01/13 05:19:29;;;;;;;120.30;26.90;;;5.30;99.90;;;;;;5074508;28;20055;-61
2022/01/13 05:22:15;;;;;;;;;;;5.30;99.90;;;;;;5067797;28;20063;-61
2022/01/13 05:24:41;;;;;;;149.90;25.95;;;5.30;99.90;;;;;;5070125;28;19979;-61
2022/01/13 05:27:08;;;;;;;142.45;27.08;;;5.30;99.90;;;;;;5069327;28;20453;-62
2022/01/13 05:29:33;;;;;;;159.32;27.67;;;5.30;99.90;;;;;;5070997;28;20044;-61
2022/01/13 05:31:59;;;;;;;131.23;27.73;;;5.30;99.90;;;;;;5068054;28;20058;-59
2022/01/13 05:34:25;;;;;;;184.52;28.88;;;5.30;99.90;;;;;;5076938;28;20039;-59
2022/01/13 05:36:51;;;;;;;119.13;25.63;;;5.30;99.90;;;;;;5069566;28;20780;-61
2022/01/13 05:39:17;;;;;;;140.70;27.45;;;5.30;99.90;;;;;;5070421;28;20040;-61
2022/01/13 05:41:42;;;;;;;144.40;25.90;;;5.30;99.90;;;;;;5066787;28;20576;-61
2022/01/13 05:44:08;;;;;;;152.70;28.33;;;5.30;99.90;;;;;;5084554;27;20056;-60
2022/01/13 05:46:35;;;;;;;185.93;28.95;;;5.30;99.90;;;;;;5106859;27;20079;-60
2022/01/13 05:49:01;;;;;;;148.13;28.50;;;5.30;99.90;;;;;;5104200;27;20564;-60
2022/01/13 05:51:26;;;;;;;147.02;28.85;;;5.30;99.90;;;;;;5083045;27;20128;-61
2022/01/13 05:53:52;;;;;;;125.57;27.83;;;5.30;99.90;;;;;;5106228;27;20043;-60
2022/01/13 05:56:18;;;;;;;132.82;28.05;;;5.30;99.90;;;;;;5100086;27;20556;-61
2022/01/13 05:58:44;;;;;;;218.55;32.70;;;5.40;99.90;;;;;;5103122;27;20070;-61
2022/01/13 06:01:10;;;;;;;181.10;30.25;;;5.40;99.90;;;;;;5098615;27;20173;-60
2022/01/13 06:03:36;;;;;;;184.70;30.83;;;5.40;99.90;;;;;;5102731;27;20055;-61
2022/01/13 06:06:01;;;;;;;166.32;32.20;;;5.40;99.90;;;;;;5067200;28;20051;-61
2022/01/13 06:08:27;;;;;;;210.18;33.88;;;5.40;99.90;;;;;;5101302;27;20104;-60
2022/01/13 06:10:53;;;;;;;189.85;31.77;;;5.50;99.90;;;;;;5103943;27;20050;-59
2022/01/13 06:13:19;;;;;;;145.27;29.17;;;5.50;99.90;;;;;;5105105;27;20055;-60
2022/01/13 06:15:45;;;;;;;160.52;30.13;;;5.50;99.90;;;;;;5103897;27;20044;-59
2022/01/13 06:18:15;;;;;;;169.48;31.23;;;5.50;99.90;;;;;;5102376;27;20050;-60
2022/01/13 06:20:41;;;;;;;145.65;30.58;;;5.50;99.90;;;;;;5101073;27;20054;-60
2022/01/13 06:23:08;;;;;;;144.52;29.52;;;5.50;99.90;;;;;;5097310;27;20296;-61
2022/01/13 06:25:37;;;;;;;147.93;31.38;;;5.50;99.90;;;;;;5103886;27;20189;-59
2022/01/13 06:28:04;;;;;;;149.07;32.22;;;5.50;99.90;;;;;;5120704;27;20519;-61
2022/01/13 06:30:30;;;;;;;171.40;32.65;;;5.60;99.90;;;;;;5099152;27;20058;-60
2022/01/13 06:32:57;;;;;;;145.63;33.13;;;5.60;99.90;;;;;;5094563;27;20186;-60
2022/01/13 06:35:23;;;;;;;174.52;32.83;;;5.60;99.90;;;;;;5089395;27;20047;-59
2022/01/13 06:37:48;;;;;;;159.77;32.65;;;5.60;99.90;;;;;;5086027;27;20466;-61
2022/01/13 06:40:15;;;;;;;169.80;32.72;;;5.60;99.90;;;;;;5104270;27;20059;-61
2022/01/13 06:42:41;;;;;;;157.90;34.58;;;5.60;99.90;;;;;;5097670;27;20079;-61
2022/01/13 06:45:08;;;;;;;164.30;34.17;;;5.70;99.90;;;;;;5125859;27;20524;-61
2022/01/13 06:47:34;;;;;;;146.70;32.22;;;5.70;99.90;;;;;;5087765;27;20074;-61
2022/01/13 06:50:00;;;;;;;154.48;32.92;;;5.70;99.90;;;;;;5104059;27;20039;-60
2022/01/13 06:52:26;;;;;;;164.43;35.95;;;5.80;99.90;;;;;;5114163;27;20058;-60
2022/01/13 06:54:52;;;;;;;150.68;32.80;;;5.70;99.90;;;;;;5122076;27;20051;-59
2022/01/13 06:57:19;;;;;;;155.18;33.58;;;5.80;99.90;;;;;;5125880;27;20047;-60
2022/01/13 06:59:46;;;;;;;155.52;32.72;;;5.80;99.90;;;;;;5118997;27;20046;-61
2022/01/13 07:02:13;;;;;;;137.60;34.00;;;5.70;99.90;;;;;;5098076;27;20080;-61
2022/01/13 07:04:39;;;;;;;162.27;35.95;;;5.80;99.90;;;;;;5127822;27;20061;-60
2022/01/13 07:07:04;;;;;;;141.38;34.13;;;5.80;99.90;;;;;;5095219;27;20520;-60
2022/01/13 07:09:30;;;;;;;132.80;33.17;;;5.80;99.90;;;;;;5100414;27;20057;-60
2022/01/13 07:11:56;;;;;;;163.00;33.70;;;5.80;99.90;;;;;;5096486;27;20089;-60
2022/01/13 07:14:22;;;;;;;162.65;35.65;;;5.80;99.90;;;;;;5098350;27;20118;-59
2022/01/13 07:16:48;;;;;;;138.90;33.83;;;5.90;99.90;;;;;;5093810;27;20116;-59
2022/01/13 07:19:15;;;;;;;147.25;35.30;;;5.90;99.90;;;;;;5104328;27;20267;-61
2022/01/13 07:21:42;;;;;;;133.43;33.97;;;5.90;99.90;;;;;;5105297;27;20085;-61
2022/01/13 07:24:08;;;;;;;153.55;36.45;;;5.90;99.90;;;;;;5128009;27;20086;-60
2022/01/13 07:26:34;;;;;;;153.73;34.72;;;5.90;99.90;;;;;;5096090;27;20508;-61
2022/01/13 07:29:01;;;;;;;154.77;35.25;;;5.90;99.90;;;;;;5111617;27;20085;-60
2022/01/13 07:31:28;;;;;;;135.93;34.28;;;5.90;99.90;;;;;;5119944;27;20128;-60
2022/01/13 07:33:54;;;;;;;138.27;34.40;;;6.00;99.90;;;;;;5106490;27;20548;-61
2022/01/13 07:36:19;;;;;;;127.53;34.00;;;6.00;99.90;;;;;;5129248;27;20125;-60
2022/01/13 07:38:45;;;;;;;139.57;35.97;;;6.00;99.90;;;;;;5105400;27;20107;-59
2022/01/13 07:41:11;;;;;;;131.98;35.55;;;6.00;99.90;;;;;;5083263;27;20055;-60
2022/01/13 07:43:41;;;;;;;155.88;36.95;;;6.00;99.90;;;;;;5124832;27;20369;-61
2022/01/13 07:46:07;;;;;;;166.05;37.08;;;6.00;99.90;;;;;;5121681;27;20054;-60
2022/01/13 07:48:32;;;;;;;157.00;35.95;;;6.10;99.90;;;;;;5088278;27;20043;-59
2022/01/13 07:50:58;;;;;;;149.05;35.85;;;6.10;99.90;;;;;;5089847;27;20110;-61
2022/01/13 07:53:24;;;;;;;151.27;37.00;;;6.10;99.90;;;;;;5106978;27;20054;-61
2022/01/13 07:55:50;;;;;;;158.40;35.85;;;6.10;99.90;;;;;;5117324;27;20455;-59
2022/01/13 07:58:15;;;;;;;158.15;36.20;;;6.00;99.90;;;;;;5100145;27;20043;-60
2022/01/13 08:00:42;;;;;;;178.07;36.25;;;6.10;99.90;;;;;;5097640;27;20505;-61
2022/01/13 08:03:08;;;;;;;143.90;35.97;;;6.10;99.90;;;;;;5079531;27;20050;-61
2022/01/13 08:05:33;;;;;;;149.20;37.53;;;6.10;99.90;;;;;;5102392;27;20051;-62
2022/01/13 08:07:59;;;;;;;152.70;39.05;;;6.10;99.90;;;;;;5085208;27;20066;-61
2022/01/13 08:10:25;;;;;;;150.25;36.20;;;6.10;99.90;;;;;;5118851;27;20140;-61
2022/01/13 08:12:51;;;;;;;151.50;36.75;;;6.20;99.90;;;;;;5119747;27;20542;-60
2022/01/13 08:15:17;;;;;;;134.05;36.17;;;6.10;99.90;;;;;;5084485;27;20545;-59
2022/01/13 08:20:30;;;;;;;135.15;34.60;;;6.10;99.90;;;;;;5095767;27;20043;-61
2022/01/13 08:22:57;;;;;;;129.18;34.63;;;6.10;99.90;;;;;;5097069;27;20058;-60
2022/01/13 08:25:24;;;;;;;116.03;33.42;;;6.10;99.90;;;;;;5102427;27;20050;-61
2022/01/13 08:27:50;;;;;;;125.70;33.90;;;6.20;99.90;;;;;;5121781;27;20272;-59
2022/01/13 08:30:16;;;;;;;119.40;33.58;;;6.10;99.90;;;;;;5116515;27;20039;-61
2022/01/13 08:32:42;;;;;;;117.13;33.40;;;6.10;99.90;;;;;;5102084;27;20055;-61
2022/01/13 08:35:09;;;;;;;119.85;34.45;;;6.10;99.90;;;;;;5078330;27;20078;-61
2022/01/13 08:37:35;;;;;;;121.78;34.60;;;6.10;99.90;;;;;;5103938;27;20047;-62
2022/01/13 08:40:04;;;;;;;124.88;33.42;;;6.10;99.90;;;;;;5085157;27;20094;-60
2022/01/13 08:42:30;;;;;;;115.15;32.85;;;6.10;99.90;;;;;;5123007;27;20562;-61
2022/01/13 08:44:56;;;;;;;114.43;33.28;;;6.10;99.90;;;;;;5120563;27;20086;-60
2022/01/13 08:47:21;;;;;;;118.10;34.10;;;6.10;99.90;;;;;;5125161;27;20035;-61
2022/01/13 08:49:47;;;;;;;104.60;31.42;;;6.10;99.90;;;;;;5122438;27;20115;-61
2022/01/13 08:52:13;;;;;;;101.15;32.13;;;6.10;99.90;;;;;;5114972;27;20069;-62
2022/01/13 08:54:45;;;;;;;106.85;33.10;;;6.10;99.90;;;;;;5106785;27;20099;-61
2022/01/13 08:57:11;;;;;;;114.27;33.77;;;6.10;99.90;;;;;;5104946;27;20481;-61
2022/01/13 08:59:37;;;;;;;113.88;33.00;;;6.10;99.90;;;;;;5089623;27;20049;-61
2022/01/13 09:02:03;;;;;;;112.95;32.88;;;6.10;99.90;;;;;;5097669;27;20457;-61
2022/01/13 09:04:29;;;;;;;113.53;33.55;;;6.20;99.90;;;;;;5122105;27;20064;-60
2022/01/13 09:06:56;;;;;;;110.07;32.50;;;6.10;99.90;;;;;;5107876;27;20052;-59
2022/01/13 09:09:22;;;;;;;103.90;32.28;;;6.10;99.90;;;;;;5121814;27;20645;-60
2022/01/13 09:11:48;;;;;;;100.43;31.95;;;6.20;99.90;;;;;;5116931;27;20055;-61
2022/01/13 09:14:15;;;;;;;112.47;33.28;;;6.20;99.90;;;;;;5102135;27;20035;-61
2022/01/13 09:16:45;;;;;;;127.82;35.15;;;6.20;99.90;;;;;;5104796;27;20172;-61
2022/01/13 09:19:13;;;;;;;105.93;32.65;;;6.20;99.90;;;;;;5121347;27;20047;-60
2022/01/13 09:21:41;;;;;;;113.00;32.85;;;6.20;99.90;;;;;;5100607;27;20134;-61
2022/01/13 09:24:10;;;;;;;116.93;32.40;;;6.10;99.90;;;;;;5120104;27;20196;-60
2022/01/13 09:26:37;;;;;;;93.38;31.23;;;6.20;99.90;;;;;;5107872;27;20504;-61
2022/01/13 09:29:05;;;;;;;102.72;32.22;;;6.20;99.90;;;;;;5103325;27;20363;-60
2022/01/13 09:31:32;;;;;;;100.93;31.08;;;6.20;99.90;;;;;;5115809;27;20163;-59
2022/01/13 09:34:01;;;;;;;107.07;32.92;;;6.20;99.90;;;;;;5120212;27;20074;-62
2022/01/13 09:36:28;;;;;;;97.75;31.77;;;6.20;99.90;;;;;;5104390;27;20043;-60
2022/01/13 09:38:54;;;;;;;87.65;31.35;;;6.30;99.90;;;;;;5100434;27;20043;-59
2022/01/13 09:41:23;;;;;;;99.65;30.95;;;6.20;99.90;;;;;;5107628;27;20081;-61
2022/01/13 09:43:50;;;;;;;93.43;29.88;;;6.30;99.90;;;;;;5123570;27;20478;-60
2022/01/13 09:46:17;;;;;;;96.93;31.73;;;6.30;99.90;;;;;;5105255;27;20050;-61
2022/01/13 09:48:44;;;;;;;102.35;32.55;;;6.30;99.90;;;;;;5119726;27;20050;-60
2022/01/13 09:51:10;;;;;;;96.80;32.13;;;6.20;99.90;;;;;;5096311;27;20051;-61
2022/01/13 09:53:36;;;;;;;117.00;33.47;;;6.20;99.90;;;;;;5122911;27;20074;-61
2022/01/13 09:56:04;;;;;;;108.90;32.45;;;6.30;99.90;;;;;;5104784;27;20580;-62
2022/01/13 09:58:30;;;;;;;109.00;32.85;;;6.30;99.90;;;;;;5123500;27;20046;-61
2022/01/13 10:00:57;;;;;;;95.10;32.95;;;6.30;99.90;;;;;;5088372;27;20063;-60
2022/01/13 10:03:27;;;;;;;100.68;32.95;;;6.30;99.90;;;;;;5071084;27;20058;-59
2022/01/13 10:05:58;;;;;;;97.32;31.88;;;6.30;99.90;;;;;;5119061;27;20100;-60
2022/01/13 10:08:40;;;;;;;110.15;34.22;;;6.30;99.90;;;;;;5121846;27;20055;-61
2022/01/13 10:11:26;;;;;;;88.93;31.40;;;6.30;99.90;;;;;;5113901;27;20486;-61
2022/01/13 10:14:13;;;;;;;109.57;33.83;;;6.30;99.90;;;;;;5100830;27;20047;-62
2022/01/13 10:16:44;;;;;;;104.43;33.65;;;6.30;99.90;;;;;;5117047;27;20478;-59
2022/01/13 10:19:32;;;;;;;103.10;33.45;;;6.30;99.90;;;;;;5103858;27;20059;-61
2022/01/13 10:22:11;;;;;;;104.65;33.40;;;6.30;99.90;;;;;;5115449;27;20216;-61
2022/01/13 10:24:43;;;;;;;115.85;34.67;;;6.30;99.90;;;;;;5118390;27;20042;-61
2022/01/13 10:27:18;;;;;;;113.37;36.77;;;6.30;99.90;;;;;;5119041;27;20035;-61
2022/01/13 10:29:52;;;;;;;100.90;35.78;;;6.40;99.90;;;;;;5119572;27;20303;-60
2022/01/13 10:32:23;;;;;;;101.35;34.42;;;6.40;99.90;;;;;;5089313;27;20043;-61
2022/01/13 10:34:58;;;;;;;85.28;32.38;;;6.40;99.90;;;;;;5088923;27;20050;-61
2022/01/13 10:37:43;;;;;;;82.78;32.58;;;6.40;99.90;;;;;;5105794;27;20043;-59
2022/01/13 10:40:22;;;;;;;93.78;34.45;;;6.40;99.90;;;;;;5118721;27;20494;-60
2022/01/13 10:45:21;;;;;;;91.00;33.88;;;6.50;99.90;;;;;;5119520;27;20069;-60
2022/01/13 10:48:02;;;;;;;94.47;33.65;;;6.50;99.90;;;;;;5088429;27;20047;-60
2022/01/13 10:50:32;;;;;;;87.38;33.20;;;6.50;99.90;;;;;;5114293;27;20512;-61
2022/01/13 10:53:04;;;;;;;93.13;34.90;;;6.50;99.90;;;;;;5117234;27;20519;-60
2022/01/13 10:55:35;;;;;;;87.15;33.47;;;6.50;99.90;;;;;;5090056;27;20047;-61
2022/01/13 10:58:02;;;;;;;91.65;32.75;;;6.40;99.90;;;;;;5098410;27;20038;-61
2022/01/13 11:00:30;;;;;;;99.63;34.63;;;6.40;99.90;;;;;;5099978;27;20443;-61
2022/01/13 11:03:07;;;;;;;87.22;34.35;;;6.50;99.90;;;;;;5117592;27;20043;-60
2022/01/13 11:05:37;;;;;;;95.32;33.97;;;6.50;99.90;;;;;;5116551;27;20493;-61
2022/01/13 11:08:06;;;;;;;96.40;34.65;;;6.50;99.90;;;;;;5100934;27;20047;-61
2022/01/13 11:10:33;;;;;;;88.57;32.63;;;6.50;99.90;;;;;;5118258;27;20500;-60
2022/01/13 11:13:01;;;;;;;96.55;34.35;;;6.50;99.90;;;;;;5101825;27;20050;-62
2022/01/13 11:15:28;;;;;;;80.97;33.00;;;6.50;99.90;;;;;;5100066;27;20034;-61
2022/01/13 11:17:56;;;;;;;99.47;36.58;;;6.50;99.90;;;;;;5121819;27;20089;-60
2022/01/13 11:20:23;;;;;;;96.22;35.40;;;6.50;99.90;;;;;;5099720;27;20066;-61
2022/01/13 11:22:52;;;;;;;90.68;34.70;;;6.50;99.90;;;;;;5086317;27;20046;-61
2022/01/13 11:25:23;;;;;;;89.50;34.88;;;6.50;99.90;;;;;;5116691;27;20074;-60
2022/01/13 11:27:50;;;;;;;86.30;34.45;;;6.50;99.90;;;;;;5119227;27;20046;-61
2022/01/13 11:30:18;;;;;;;86.13;33.35;;;6.60;99.90;;;;;;5104866;27;20371;-61
2022/01/13 11:32:46;;;;;;;78.45;32.33;;;6.60;99.90;;;;;;5119734;27;20232;-61
2022/01/13 11:35:14;;;;;;;71.13;31.08;;;6.60;99.90;;;;;;5108159;27;20043;-61
2022/01/13 11:37:41;;;;;;;71.68;30.45;;;6.60;99.90;;;;;;5127310;27;20077;-60
2022/01/13 11:40:36;;;;;;;63.80;29.20;;;6.70;99.90;;;;;;5106210;27;20046;-59
2022/01/13 11:43:04;;;;;;;70.00;30.50;;;6.70;99.90;;;;;;5122561;27;20404;-61
2022/01/13 11:45:37;;;;;;;56.53;29.55;;;6.70;99.90;;;;;;5123391;27;20050;-61
2022/01/13 11:48:17;;;;;;;72.93;29.55;;;6.70;99.90;;;;;;5126655;27;20055;-58
2022/01/13 11:50:53;;;;;;;62.92;29.83;;;6.70;99.90;;;;;;5120286;27;20130;-61
2022/01/13 11:53:26;;;;;;;61.90;29.10;;;6.70;99.90;;;;;;5113530;27;20047;-60
2022/01/13 11:55:55;;;;;;;71.00;31.45;;;6.70;99.90;;;;;;5125689;27;20122;-60
2022/01/13 11:58:25;;;;;;;68.82;31.20;;;6.70;99.90;;;;;;5124745;27;20046;-61
2022/01/13 12:00:53;;;;;;;71.35;30.73;;;6.70;99.90;;;;;;5105782;27;20043;-59
2022/01/13 12:03:32;;;;;;;74.82;32.35;;;6.70;99.90;;;;;;5124517;27;20089;-61
2022/01/13 12:06:00;;;;;;;71.57;32.20;;;6.70;99.90;;;;;;5126243;27;20104;-61
2022/01/13 12:08:44;;;;;;;61.38;29.88;;;6.70;99.90;;;;;;5113333;27;20511;-61
2022/01/13 12:11:29;;;;;;;64.35;30.48;;;6.70;99.90;;;;;;5084734;27;20459;-61
2022/01/13 12:13:55;;;;;;;68.25;29.63;;;6.70;99.90;;;;;;5126246;27;20075;-60
2022/01/13 12:16:52;;;;;;;63.30;31.23;;;6.70;99.90;;;;;;5130197;27;20122;-59
2022/01/13 12:19:39;;;;;;;59.97;29.42;;;6.80;99.90;;;;;;5102110;27;20600;-60
2022/01/13 12:22:14;;;;;;;61.78;30.60;;;6.80;99.90;;;;;;5093613;27;20059;-60
2022/01/13 12:24:50;;;;;;;60.45;30.33;;;6.80;99.90;;;;;;5104624;27;20058;-61
2022/01/13 12:27:19;;;;;;;68.47;31.33;;;6.80;99.90;;;;;;5125325;27;20050;-60
2022/01/13 12:30:10;;;;;;;67.55;29.10;;;6.80;99.90;;;;;;5124045;27;20381;-61
2022/01/13 12:32:42;;;;;;;59.47;29.52;;;6.80;99.90;;;;;;5095600;27;20107;-60
2022/01/13 12:35:11;;;;;;;65.45;30.17;;;6.80;99.90;;;;;;5128406;27;20042;-61
2022/01/13 12:37:39;;;;;;;60.72;29.80;;;6.80;99.90;;;;;;5125958;27;21131;-60
2022/01/13 12:40:40;;;;;;;64.07;29.48;;;6.90;99.90;;;;;;5125694;27;20039;-60
2022/01/13 12:46:15;;;;;;;61.08;28.45;;;7.00;99.90;;;;;;5113367;27;20061;-60
2022/01/13 12:48:44;;;;;;;67.75;28.45;;;7.00;99.90;;;;;;5118164;27;20733;-61
2022/01/13 12:51:15;;;;;;;56.15;28.40;;;7.00;99.90;;;;;;5100580;27;20035;-60
2022/01/13 12:53:42;;;;;;;66.57;28.40;;;7.10;99.90;;;;;;5106527;27;20035;-61
2022/01/13 12:56:18;;;;;;;55.25;27.13;;;7.10;99.90;;;;;;5103346;27;20043;-60
2022/01/13 12:58:47;;;;;;;55.08;26.60;;;7.10;99.90;;;;;;5121816;27;20043;-59
2022/01/13 13:01:16;;;;;;;50.88;27.55;;;7.20;99.90;;;;;;5118308;27;20042;-60
2022/01/13 13:03:42;;;;;;;56.92;26.05;;;7.20;99.90;;;;;;5124239;27;20462;-59